Matías Martínez

Chefscout - Lanús
3 Dez 2028
Sonntag
Verarbeitung

Persönlichkeit

Anpassungsfähigkeit (15) Ehrgeiz (19) Kontroverse (3) Loyalität (14) Druck (12) Professionalität (13) Fairness (4) Temperament (5)

Profil

Trainerstil Demokratisch
Lizenz Nationale B
Entschlossenheit 9
Menschenführung 5
Motivation 13
Disziplin 11
Arbeitszufriedenheit
100%
Ermüdung
0%
Rolle Chefscout
Gehalt 22.6K p/W
Vertrag 14.03.2030

Leistung

Verhalten Gut
Trainingseffektivität
44%
Spielerentwicklung
55%
Verletzungsprävention
70%
Taktische Umsetzung
45%

Letzte Ereignisse

Nahm an einer Scouting-Besprechung teil jetzt
Empfahl ein Transferziel jetzt
Spieler begutachtet jetzt
Spieler begutachtet 7T her
Nahm an einer Scouting-Besprechung teil 7T her
Empfahl ein Transferziel 7T her
Spieler begutachtet 7T her
Spieler begutachtet 7T her

Aktuell beobachtet

159
Spieler Verein Status Fähigkeit Vertrauen Beobachtet Zuletzt beobachtet Letzte Stimme
Christos Mouzakitis Hull City Aktiv 137 / 158 40% 7 02.12.2028 -
Jan Cedilnik Chikhura Aktiv 70 / 87 40% 4 02.12.2028 -
Yassir Zabiri Stade Rennais Aktiv 135 / 157 40% 1 30.11.2028 -
Jefry Zapata Aldosivi Aktiv 118 / 128 40% 1 30.11.2028 -
Trey Nyoni Rotherham United Aktiv 157 / 154 40% 7 29.11.2028 -
Santino Baldassarri Orenburg Aktiv 78 / 89 40% 2 29.11.2028 -
Tiago Gordillo San Miguel Aktiv 91 / 91 40% 5 26.11.2028 -
Tyler Fletcher Rotherham United Aktiv 129 / 130 40% 1 26.11.2028 -
Ramiro Villella Inter Aktiv 94 / 106 40% 2 21.11.2028 -
Celías Ingenthron Platense Aktiv 129 / 129 40% 1 21.11.2028 -
Mateo Faure BATE Aktiv 103 / 88 40% 7 20.11.2028 -
Diego Cheuquepal Racing Aktiv 108 / 106 40% 3 20.11.2028 -
Samuel Molano Patriotas Aktiv 85 / 101 40% 3 19.11.2028 -
Aytor Herrera Mineros de Guayana Aktiv 97 / 88 40% 2 19.11.2028 -
Ayyoub Bouaddi Stoke City Aktiv 148 / 162 40% 4 18.11.2028 -
Chris Rigg West Ham United Aktiv 144 / 157 40% 2 18.11.2028 -
Azizbek To'lqinbekov Bunyodkor Aktiv 98 / 100 40% 5 17.11.2028 -
Noah Markmann Esbjerg Aktiv 119 / 132 40% 1 17.11.2028 -
Hian Rincón Once Caldas Aktiv 99 / 93 40% 2 16.11.2028 -
Diego León Rotherham United Aktiv 114 / 122 40% 2 16.11.2028 -
Mateo Caballero Defensor Sporting Aktiv 103 / 113 40% 4 15.11.2028 -
Matías Satas Grimsby Town Aktiv 118 / 117 40% 2 14.11.2028 -
Honest Ahanor Atalanta Aktiv 155 / 147 40% 7 11.11.2028 -
Ale Gomes Zaragoza Aktiv 110 / 123 40% 1 11.11.2028 -
Máximo Munarriz San Telmo Aktiv 99 / 101 40% 2 07.11.2028 -
Giovanni Leoni Lincoln City Aktiv 142 / 140 40% 7 02.11.2028 -
Anderson Acevedo Bogota Aktiv 100 / 93 40% 4 02.11.2028 -
Alejandro Almaraz NK Celje Aktiv 125 / 114 40% 3 01.11.2028 -
Snyder Brunell Seattle Sounders Aktiv 87 / 103 40% 1 01.11.2028 -
Joaquín Salas Reading Aktiv 108 / 116 40% 2 31.10.2028 -
Harrison Armstrong Ipswich Town Aktiv 153 / 154 40% 5 31.10.2028 -
Facundo Balatti Penarol Aktiv 95 / 105 40% 2 30.10.2028 -
Germán Barbas Racing Santander Aktiv 134 / 120 40% 2 28.10.2028 -
Davinchi Getafe Aktiv 137 / 132 40% 2 28.10.2028 -
Benito Paklayan Alvarado Aktiv 84 / 90 40% 1 26.10.2028 -
Andrija Bulatović Chamois Niortais Aktiv 126 / 127 40% 1 26.10.2028 -
Tobías Ramírez River Plate Aktiv 139 / 126 40% 3 24.10.2028 -
Gustavo Vázquez Sumgayit Aktiv 91 / 104 40% 1 18.10.2028 -
Alejandro Tapia Central Norte Aktiv 78 / 92 40% 1 17.10.2028 -
Andrés Cuenca Como Aktiv 130 / 114 40% 1 16.10.2028 -
Luka Vušković Tottenham Aktiv 143 / 160 40% 1 15.10.2028 -
Veljko Milosavljević Bournemouth Aktiv 151 / 165 40% 1 14.10.2028 -
Yury Oyarzo Racing Aktiv 95 / 105 40% 1 11.10.2028 -
Ivan Borges Defensores Aktiv 91 / 97 40% 1 09.10.2028 -
Cayetano Santarelli BATE Aktiv 93 / 86 40% 1 08.10.2028 -
Óscar Hinojosa Metropolitanos Aktiv 83 / 89 40% 4 03.10.2028 -
Malte Hallin GIF Sundsvall Aktiv 84 / 107 40% 1 30.09.2028 -
Víctor Reyes Deportes Tolima Aktiv 102 / 91 40% 1 29.09.2028 -
Samuel Córdoba Depor Aktiv 83 / 100 40% 1 28.09.2028 -
Juan Pablo Hernández Plaza Colonia Aktiv 88 / 99 40% 1 19.09.2028 -
Estanislao López Colón Aktiv 98 / 96 40% 1 18.09.2028 -
Lautaro Dufur Juventud Aktiv 97 / 109 40% 2 08.09.2028 -
Sergio Martínez Real Madrid Aktiv 108 / 130 40% 1 08.09.2028 -
Matteo Ruggeri Middlesbrough Aktiv 164 / 161 40% 1 10.07.2028 -
Ben Gannon Doak Charlton Athletic Aktiv 163 / 146 40% 1 10.07.2028 -
Olivier Leroux Mouscron Aktiv 102 / 108 40% 3 01.06.2028 -
Abubakar Adams Aduana Stars Aktiv 83 / 91 40% 3 29.05.2028 -
Kiani Inge Groningen Aktiv 116 / 132 40% 3 26.05.2028 -
Simone Suppa Virtus Verona Aktiv 100 / 83 40% 3 22.05.2028 -
Fabián Correa Barranquilla Aktiv 92 / 101 40% 2 18.05.2028 -
Jorthy Mokio ADO Den Haag Aktiv 131 / 147 40% 4 16.05.2028 -
Musa Danjuma Umraniyespor Aktiv 92 / 104 40% 1 15.05.2028 -
Josh Nichols Oldham Athletic Aktiv 124 / 133 40% 3 14.05.2028 -
Bernardo Lima Porto Aktiv 107 / 118 40% 8 14.05.2028 -
Nicolò Moranduzzo Renate Aktiv 97 / 103 40% 3 13.05.2028 -
Riquelme Thompson-Jones Accrington Stanley Aktiv 114 / 116 40% 2 11.05.2028 -
Federico Matarán Giana Erminio Aktiv 111 / 102 40% 2 11.05.2028 -
Kelian Le Pironnec Mirandés Aktiv 103 / 114 40% 2 05.05.2028 -
Martim Cunha Porto Aktiv 117 / 103 40% 2 02.05.2028 -
Ayden Heaven Portsmouth Aktiv 134 / 162 40% 1 27.04.2028 -
Daniel Banjaqui Benfica Aktiv 111 / 136 40% 2 26.04.2028 -
Jan Bürger Northampton Town Aktiv 113 / 129 40% 2 23.04.2028 -
Victor Hernandez Santa Fe Aktiv 108 / 131 40% 1 07.04.2028 -
Josh Acheampong Everton Aktiv 148 / 146 40% 1 01.04.2028 -
Andrey Ivlev Nizhniy Novgorod Aktiv 107 / 112 40% 3 28.03.2028 -
Matvey Bardachev Zenit Aktiv 94 / 108 40% 1 12.03.2028 -
William Rovida Pro Patria Aktiv 96 / 95 40% 4 21.06.2027 -
Matteo Rizzo Cosenza Aktiv 100 / 107 40% 3 16.06.2027 -
Rafael Camacho Sporting CP Aktiv 103 / 112 40% 1 06.06.2027 -
Mikheil Makatsaria Torpedo Kutaisi Aktiv 90 / 106 40% 3 03.06.2027 -
Raúl Rangel Braga Aktiv 132 / 132 66% 1 01.06.2027 Befürworten
Che Adams Torino Aktiv 133 / 125 40% 1 31.05.2027 -
Frankarlos Benítez Caracas Aktiv 113 / 112 40% 5 30.05.2027 -
Gor Matinyan Urartu Aktiv 108 / 103 40% 2 30.05.2027 -
Temirlan Anarbekov Kairat Aktiv 114 / 121 40% 2 28.05.2027 -
Leandro Brey Boca Juniors Aktiv 117 / 122 40% 4 25.05.2027 -
Levan Tandilashvili Egnatia Rrogozhinë Aktiv 97 / 112 40% 2 25.05.2027 -
Cesare Galeotti Trapani Aktiv 94 / 97 40% 2 21.05.2027 -
Muhammadyusuf Sobirov Bunyodkor Aktiv 87 / 117 40% 1 11.05.2027 -
Vladimir Nazarov Pakhtakor Aktiv 97 / 120 40% 4 09.05.2027 -
Facundo Vila Estudiantes Aktiv 91 / 103 40% 4 02.05.2027 -
Halldór Snær Georgsson KR Aktiv 107 / 108 40% 2 21.04.2027 -
Sergio Barlocco Trento Aktiv 96 / 105 40% 3 15.04.2027 -
Francesco D'Alterio Ternana Aktiv 111 / 108 40% 2 28.03.2027 -
Melker Ellborg Sunderland Aktiv 115 / 118 40% 3 26.03.2027 -
Ludovico Del Sorbo Sorrento Aktiv 93 / 123 40% 2 25.03.2027 -
Marvin Keller Chelsea Aktiv 158 / 134 40% 2 25.03.2027 -
Oliver Dovin Coventry City Aktiv 110 / 117 40% 1 16.03.2027 -
Shahriar Rezaeian Siah Jamegan Aktiv 92 / 119 40% 1 03.03.2027 -
James Trafford Leeds United Aktiv 138 / 150 40% 1 02.03.2027 -
Marcelo Allende Mamelodi Sundowns Aktiv 142 / 132 40% 2 28.12.2026 -
Mohamed-Ali Cho Hull City Aktiv 143 / 130 40% 2 17.12.2026 -
Yousef Salech Cardiff City Aktiv 125 / 118 40% 1 02.12.2026 -
Kwadwo Duah Ludogorets Aktiv 137 / 124 40% 1 02.12.2026 -
Tyrese Campbell Sheffield United Aktiv 118 / 142 40% 1 26.11.2026 -
Oli McBurnie Hull City Aktiv 142 / 150 40% 4 24.11.2026 -
Valentín Gómez Betis Aktiv 145 / 127 40% 1 24.11.2026 -
Lorenzo Colombo Genoa Aktiv 153 / 132 40% 1 23.11.2026 -
Yorbe Vertessen Red Bull Salzburg Aktiv 118 / 127 40% 1 20.11.2026 -
Hwang Hee-Chan Wolverhampton Aktiv 150 / 122 40% 3 18.11.2026 -
Ferland Mendy Real Madrid Aktiv 133 / 133 40% 2 18.11.2026 -
Jackson Muleka Konyaspor Aktiv 135 / 141 40% 1 18.11.2026 -
Luka Jović CFR Cluj Aktiv 138 / 136 40% 4 16.11.2026 -
Fiete Arp OB Aktiv 118 / 142 40% 3 14.11.2026 -
Callum O'Hare Sheffield United Aktiv 119 / 136 40% 1 14.11.2026 -
Wessam Abou Ali Columbus Crew Aktiv 120 / 122 40% 2 12.11.2026 -
Alexey Miranchuk Atlanta United FC Aktiv 153 / 137 40% 5 10.11.2026 -
Manu Morlanes Mallorca Aktiv 119 / 121 40% 1 08.11.2026 -
Teboho Mokoena Mamelodi Sundowns Aktiv 127 / 116 40% 1 08.11.2026 -
Leo Ceara Kashima Antlers Aktiv 149 / 129 40% 4 04.11.2026 -
Jaminton Campaz Rosario Central Aktiv 119 / 125 40% 1 24.10.2026 -
Ilyas Ansah Hull City Aktiv 110 / 128 40% 1 23.10.2026 -
Myrto Uzuni Austin FC Aktiv 144 / 147 40% 1 23.10.2026 -
Azor Matusiwa Ipswich Town Aktiv 142 / 149 40% 1 23.10.2026 -
Nicolò Tresoldi Club Brugge Aktiv 151 / 132 40% 2 20.10.2026 -
Zian Flemming Ipswich Town Aktiv 113 / 124 40% 2 18.10.2026 -
Dániel Gazdag New England Revolution Aktiv 140 / 132 40% 2 15.10.2026 -
Ander Guevara Racing Genk Aktiv 117 / 142 40% 1 09.10.2026 -
Maurits Kjærgaard Red Bull Salzburg Aktiv 125 / 134 40% 1 05.10.2026 -
Petar Musa FC Dallas Aktiv 121 / 150 40% 2 04.10.2026 -
Erison Kawasaki Frontale Aktiv 133 / 144 40% 1 25.09.2026 -
Germán Berterame Inter Miami CF Aktiv 129 / 120 40% 1 23.09.2026 -
Kein Sato FC Tokyo Aktiv 150 / 116 40% 1 20.09.2026 -
Nicolás Castro Toluca Aktiv 143 / 125 40% 1 20.09.2026 -
Carlos Álvarez Club America Aktiv 141 / 125 40% 1 20.09.2026 -
Ottó Hindrich Legia Aktiv 124 / 105 40% 1 19.09.2026 -
Alejandro Piedrahita Deportivo Pereira Aktiv 113 / 121 40% 1 17.09.2026 -
Esteban Obregón Montevideo City Torque Aktiv 109 / 126 40% 1 17.09.2026 -
Strahinja Manojlović Radnicki Nis Aktiv 111 / 95 40% 1 11.09.2026 -
Jesús Angulo Tigres Aktiv 118 / 133 40% 1 11.09.2026 -
Nathan Silva Pumas UNAM Aktiv 126 / 114 40% 1 08.09.2026 -
Erik Lira Cruz Azul Aktiv 126 / 148 40% 1 08.09.2026 -
Mojmír Chytil Slavia Prague Aktiv 118 / 125 40% 3 04.09.2026 -
Steven Bergwijn Al-Ittihad Aktiv 156 / 142 40% 2 01.09.2026 -
Filip Marschall Stevenage Aktiv 117 / 115 40% 1 01.09.2026 -
Masoud Hajsafi Padideh Aktiv 112 / 94 40% 1 30.08.2026 -
Diego Rossi Monterrey Aktiv 113 / 130 40% 3 29.08.2026 -
Heorhii Yermakov Metalist Aktiv 112 / 101 40% 1 28.08.2026 -
Takuma Asano Sanfrecce Hiroshima Aktiv 118 / 115 40% 1 27.08.2026 -
Franko Kolić Istra 1961 Aktiv 103 / 119 40% 1 25.08.2026 -
Andreas Jungdal Westerlo Aktiv 131 / 105 40% 1 21.08.2026 -
Laureano Martínez Talleres Aktiv 106 / 92 40% 1 19.08.2026 -
Ernest Muçi Trabzonspor Aktiv 149 / 142 40% 1 16.08.2026 -
Roberto Fernández Braga Aktiv 139 / 147 40% 1 13.08.2026 -
Martín Ojeda Orlando City Aktiv 121 / 139 40% 1 13.08.2026 -
Carlos Rodríguez Cruz Azul Aktiv 145 / 136 40% 1 12.08.2026 -
Luís Esteves Atlas Aktiv 123 / 133 40% 1 07.08.2026 -
Bertrand Traoré Sunderland Aktiv 133 / 127 40% 3 05.08.2026 -
Rubén Duarte Pumas UNAM Aktiv 147 / 128 40% 1 02.08.2026 -